Fort Washington, Maryland
Current Conditions -  °F | °C
As of 9:52 PM on Monday 22 Dec 2014 (Local Time) from KDCA Reporting Station
Drizzle Drizzle  
Wind Chill: 34°   Ceiling: 900
Heat Index: 39°   Visibility: 5mi
Dew Point: 34°   Wind: 7mph
Humidity: 82%   Direction: 360°N
Pressure: 30.12"   Gusts: NA
Location:  38.74°N, 77°W
Report Text: KDCA 230252Z 36006KT 5SM -DZ OVC009 04/01 A3012 RMK AO2 SLP200 P0000 60005 T00390011 56019
Loading
Personal Weather Stations






























Interactive Weather Map New forecast layout! Learn more

10-Day Weather Forecast

Advertisements
Track Severe Weather on mobile